Aubrey, TX

7:17 PM CDT on August 29, 2014 (GMT -0500)
Fairview Farms | Change Station
CLOSE
Current Station
Personal Weather Station
Location: Krugerville, TX
Elevation: 666 ft
Nearby Weather Stations

Elev 666 ft 33.27 °N, 96.99 °W | Updated 3 minutes ago

Partly Cloudy
Partly Cloudy
86.5 °F
Feels Like 92 °F
N
1.0
Wind Variable Wind from ENE
Gusts 2.0 mph

Today
High -- | Low -- °F
--% Chance of Precip.
Yesterday
High -- | Low -- °F
Precip. -- in
7:00 AM 7:56 PM
Waxing Crescent, 17% visible
Pressure 29.83 in
Visibility 10.0 miles
Clouds Clear
Heat Index 92 °F
Dew Point 71 °F
Humidity 60%
Rainfall 0.23 in
Snow Depth Not available.
UV 1 out of 12
Pollen 9.50 out of 12
Ozone Unhealthy for Sensitive Groups
PM2.5 Good
Flu Activity Not available.
METAR KDTO 292353Z 36003KT 10SM CLR 31/19 A2985 RMK AO2 SLP099 T03060189 10328 20283 57005

More Conditions Fewer Conditions

Pressure 29.83 in
Visibility 10.0 miles
Clouds Clear
Heat Index 92 °F
Dew Point 71 °F
Humidity 60%
Rainfall 0.23 in
Snow Depth Not available.
UV 1 out of 12
Pollen 9.50 out of 12
Ozone Unhealthy for Sensitive Groups
PM2.5 Good
Flu Activity Not available.
METAR KDTO 292353Z 36003KT 10SM CLR 31/19 A2985 RMK AO2 SLP099 T03060189 10328 20283 57005

More Conditions Fewer Conditions

Nowcast | as of 5:47 PM CDT on August 29, 2014

Scattered thunderstorms extending from just west of Greenville to Dallas...to Hillsboro were moving north northeast at 5 mph. These storms will produce locally heavy rain and frequent lightning. Elsewhere...isolated showers and thunderstorms are possible this evening...generally along and south of the Interstate 20 corridor. This activity should diminish after sunset and widespread severe weather is not expected.

×

10-Day Weather Forecast

Almanac

Astronomy

Aug. 29, 2014 Rise Set
Actual Time 7:00 AM CDT 7:56 PM CDT
Civil Twilight 6:34 AM CDT 8:22 PM CDT
Nautical Twilight 6:04 AM CDT 8:52 PM CDT
Astronomical Twilight 5:33 AM CDT 9:23 PM CDT
Moon 10:37 AM CDT (8/29) 10:09 PM CDT (8/29)
Length of Visible Light 13h 47m
Length of Day
12h 56m
Tomorrow will be 1m 58s shorter.
Waxing Crescent, 17% of the Moon is Illuminated
Today
Waxing Crescent
Sep 2
First Quarter
Sep 8
Full
Sep 15
Last Quarter
Sep 24
New

Today's Extremes

State Highs State Lows

Community

WunderPhotos

Upload Photos

1,748,382 photos uploaded!

Nearby

Air Quality

  Air Quality AQ Index Pollutant
Yesterday Moderate
OZONE
Yesterday Good
PM2.5
Current Unhealthy for Sensitive Groups
OZONE
Current Good
PM2.5
Friday Good
OZONE
Friday Good
PM10
Saturday Good
OZONE
Saturday Good
PM10
Sunday Good
OZONE
Sunday Good
PM10
Monday Good
OZONE
Monday Good
PM10
Tuesday Good
OZONE
Tuesday Good
PM10

Snow Depth

Station Depth Elevation
No new snow has been reported.

Earthquake Activity

City Distance Mag. Time & Date
No recent earthquake activity has been reported nearby.
Minimum magnitude displayed is 2.5.

Coastal Water Temperatures

Place Temperature
No Stations Reporting

Nearby Weather Stations